sensor_id;sensor_type;location;lat;lon;timestamp;P1;durP1;ratioP1;P2;durP2;ratioP2
81821;SDS011;71257;52.192;5.654;2023-08-06T00:00:39;11.23;;;6.55;;
81821;SDS011;71257;52.192;5.654;2023-08-06T00:03:05;12.23;;;6.05;;
81821;SDS011;71257;52.192;5.654;2023-08-06T00:05:30;11.45;;;6.53;;
81821;SDS011;71257;52.192;5.654;2023-08-06T00:07:56;12.98;;;6.60;;
81821;SDS011;71257;52.192;5.654;2023-08-06T00:10:21;11.45;;;7.00;;
81821;SDS011;71257;52.192;5.654;2023-08-06T00:12:47;12.43;;;7.20;;
81821;SDS011;71257;52.192;5.654;2023-08-06T00:15:13;13.32;;;8.18;;
81821;SDS011;71257;52.192;5.654;2023-08-06T00:17:39;13.10;;;7.55;;
81821;SDS011;71257;52.192;5.654;2023-08-06T00:20:04;12.77;;;7.57;;
81821;SDS011;71257;52.192;5.654;2023-08-06T00:22:32;12.85;;;7.88;;
81821;SDS011;71257;52.192;5.654;2023-08-06T00:24:58;15.90;;;8.00;;
81821;SDS011;71257;52.192;5.654;2023-08-06T00:27:23;14.60;;;8.85;;
81821;SDS011;71257;52.192;5.654;2023-08-06T00:29:49;11.65;;;7.22;;
81821;SDS011;71257;52.192;5.654;2023-08-06T00:32:14;13.87;;;7.63;;
81821;SDS011;71257;52.192;5.654;2023-08-06T00:34:39;12.63;;;7.57;;
81821;SDS011;71257;52.192;5.654;2023-08-06T00:37:05;14.40;;;7.50;;
81821;SDS011;71257;52.192;5.654;2023-08-06T00:39:30;16.13;;;7.93;;
81821;SDS011;71257;52.192;5.654;2023-08-06T00:41:56;14.02;;;8.35;;
81821;SDS011;71257;52.192;5.654;2023-08-06T00:44:23;13.88;;;8.10;;
81821;SDS011;71257;52.192;5.654;2023-08-06T00:46:48;13.25;;;8.20;;
81821;SDS011;71257;52.192;5.654;2023-08-06T00:49:13;14.90;;;7.95;;
81821;SDS011;71257;52.192;5.654;2023-08-06T00:51:39;12.98;;;8.35;;
81821;SDS011;71257;52.192;5.654;2023-08-06T00:54:05;14.52;;;8.10;;
81821;SDS011;71257;52.192;5.654;2023-08-06T00:56:30;13.73;;;7.72;;
81821;SDS011;71257;52.192;5.654;2023-08-06T00:58:58;12.25;;;7.45;;
81821;SDS011;71257;52.192;5.654;2023-08-06T01:01:23;12.32;;;7.75;;
81821;SDS011;71257;52.192;5.654;2023-08-06T01:03:49;11.30;;;7.57;;
81821;SDS011;71257;52.192;5.654;2023-08-06T01:06:15;16.00;;;7.80;;
81821;SDS011;71257;52.192;5.654;2023-08-06T01:08:49;11.65;;;7.35;;
81821;SDS011;71257;52.192;5.654;2023-08-06T01:12:25;14.40;;;8.23;;
81821;SDS011;71257;52.192;5.654;2023-08-06T01:14:29;13.07;;;7.97;;
81821;SDS011;71257;52.192;5.654;2023-08-06T01:16:58;13.18;;;8.00;;
81821;SDS011;71257;52.192;5.654;2023-08-06T01:19:25;11.98;;;7.50;;
81821;SDS011;71257;52.192;5.654;2023-08-06T01:21:50;13.03;;;8.53;;
81821;SDS011;71257;52.192;5.654;2023-08-06T01:24:16;14.57;;;7.67;;
81821;SDS011;71257;52.192;5.654;2023-08-06T01:26:44;11.90;;;7.88;;
81821;SDS011;71257;52.192;5.654;2023-08-06T01:29:15;13.07;;;7.32;;
81821;SDS011;71257;52.192;5.654;2023-08-06T01:31:48;15.32;;;8.52;;
81821;SDS011;71257;52.192;5.654;2023-08-06T01:34:17;11.95;;;7.38;;
81821;SDS011;71257;52.192;5.654;2023-08-06T01:36:45;15.43;;;8.93;;
81821;SDS011;71257;52.192;5.654;2023-08-06T01:39:10;13.50;;;8.52;;
81821;SDS011;71257;52.192;5.654;2023-08-06T01:41:36;12.63;;;8.43;;
81821;SDS011;71257;52.192;5.654;2023-08-06T01:44:01;14.53;;;8.13;;
81821;SDS011;71257;52.192;5.654;2023-08-06T01:46:26;13.20;;;7.90;;
81821;SDS011;71257;52.192;5.654;2023-08-06T01:48:52;13.40;;;7.50;;
81821;SDS011;71257;52.192;5.654;2023-08-06T01:51:17;12.75;;;8.27;;
81821;SDS011;71257;52.192;5.654;2023-08-06T01:53:43;14.23;;;8.90;;
81821;SDS011;71257;52.192;5.654;2023-08-06T01:56:08;13.45;;;8.57;;
81821;SDS011;71257;52.192;5.654;2023-08-06T01:58:33;13.23;;;8.50;;
81821;SDS011;71257;52.192;5.654;2023-08-06T02:00:59;15.63;;;7.85;;
81821;SDS011;71257;52.192;5.654;2023-08-06T02:03:25;14.48;;;7.95;;
81821;SDS011;71257;52.192;5.654;2023-08-06T02:05:51;13.80;;;8.37;;
81821;SDS011;71257;52.192;5.654;2023-08-06T02:08:16;13.25;;;8.10;;
81821;SDS011;71257;52.192;5.654;2023-08-06T02:10:41;15.65;;;9.20;;
81821;SDS011;71257;52.192;5.654;2023-08-06T02:13:07;14.30;;;8.40;;
81821;SDS011;71257;52.192;5.654;2023-08-06T02:15:32;13.03;;;7.77;;
81821;SDS011;71257;52.192;5.654;2023-08-06T02:17:57;14.37;;;8.53;;
81821;SDS011;71257;52.192;5.654;2023-08-06T02:20:23;15.10;;;8.27;;
81821;SDS011;71257;52.192;5.654;2023-08-06T02:22:48;13.60;;;8.73;;
81821;SDS011;71257;52.192;5.654;2023-08-06T02:25:13;17.97;;;8.27;;
81821;SDS011;71257;52.192;5.654;2023-08-06T02:27:39;14.00;;;8.68;;
81821;SDS011;71257;52.192;5.654;2023-08-06T02:30:05;15.20;;;8.47;;
81821;SDS011;71257;52.192;5.654;2023-08-06T02:32:31;13.18;;;8.20;;
81821;SDS011;71257;52.192;5.654;2023-08-06T02:34:57;16.40;;;8.65;;
81821;SDS011;71257;52.192;5.654;2023-08-06T02:37:22;13.63;;;8.52;;
81821;SDS011;71257;52.192;5.654;2023-08-06T02:39:48;14.50;;;8.57;;
81821;SDS011;71257;52.192;5.654;2023-08-06T02:42:13;13.77;;;8.53;;
81821;SDS011;71257;52.192;5.654;2023-08-06T02:44:39;14.88;;;8.95;;
81821;SDS011;71257;52.192;5.654;2023-08-06T02:47:04;14.30;;;8.75;;
81821;SDS011;71257;52.192;5.654;2023-08-06T02:49:30;15.70;;;8.73;;
81821;SDS011;71257;52.192;5.654;2023-08-06T02:51:55;16.13;;;9.10;;
81821;SDS011;71257;52.192;5.654;2023-08-06T02:54:20;14.87;;;8.87;;
81821;SDS011;71257;52.192;5.654;2023-08-06T02:56:48;14.50;;;8.65;;
81821;SDS011;71257;52.192;5.654;2023-08-06T02:59:14;15.75;;;9.10;;
81821;SDS011;71257;52.192;5.654;2023-08-06T03:01:39;17.60;;;8.93;;
81821;SDS011;71257;52.192;5.654;2023-08-06T03:04:05;15.48;;;9.52;;
81821;SDS011;71257;52.192;5.654;2023-08-06T03:06:31;18.50;;;10.18;;
81821;SDS011;71257;52.192;5.654;2023-08-06T03:08:56;14.27;;;8.98;;
81821;SDS011;71257;52.192;5.654;2023-08-06T03:11:21;15.88;;;9.65;;
81821;SDS011;71257;52.192;5.654;2023-08-06T03:13:47;18.45;;;9.68;;
81821;SDS011;71257;52.192;5.654;2023-08-06T03:16:13;15.27;;;9.15;;
81821;SDS011;71257;52.192;5.654;2023-08-06T03:18:39;15.30;;;9.80;;
81821;SDS011;71257;52.192;5.654;2023-08-06T03:21:04;17.42;;;9.80;;
81821;SDS011;71257;52.192;5.654;2023-08-06T03:23:30;17.42;;;9.88;;
81821;SDS011;71257;52.192;5.654;2023-08-06T03:25:55;17.77;;;9.05;;
81821;SDS011;71257;52.192;5.654;2023-08-06T03:28:20;17.23;;;8.83;;
81821;SDS011;71257;52.192;5.654;2023-08-06T03:30:47;18.08;;;10.18;;
81821;SDS011;71257;52.192;5.654;2023-08-06T03:33:12;18.13;;;8.90;;
81821;SDS011;71257;52.192;5.654;2023-08-06T03:35:38;18.17;;;9.30;;
81821;SDS011;71257;52.192;5.654;2023-08-06T03:38:03;15.90;;;9.38;;
81821;SDS011;71257;52.192;5.654;2023-08-06T03:40:28;17.60;;;10.13;;
81821;SDS011;71257;52.192;5.654;2023-08-06T03:42:54;18.27;;;9.37;;
81821;SDS011;71257;52.192;5.654;2023-08-06T03:45:19;15.85;;;8.95;;
81821;SDS011;71257;52.192;5.654;2023-08-06T03:47:44;17.30;;;9.63;;
81821;SDS011;71257;52.192;5.654;2023-08-06T03:50:10;15.55;;;9.57;;
81821;SDS011;71257;52.192;5.654;2023-08-06T03:52:35;19.23;;;9.30;;
81821;SDS011;71257;52.192;5.654;2023-08-06T03:55:01;16.52;;;9.10;;
81821;SDS011;71257;52.192;5.654;2023-08-06T03:57:26;16.85;;;9.45;;
81821;SDS011;71257;52.192;5.654;2023-08-06T03:59:52;14.27;;;8.63;;
81821;SDS011;71257;52.192;5.654;2023-08-06T04:02:17;18.50;;;8.82;;
81821;SDS011;71257;52.192;5.654;2023-08-06T04:04:42;15.83;;;9.50;;
81821;SDS011;71257;52.192;5.654;2023-08-06T04:07:08;18.10;;;9.82;;
81821;SDS011;71257;52.192;5.654;2023-08-06T04:09:33;15.40;;;9.57;;
81821;SDS011;71257;52.192;5.654;2023-08-06T04:11:59;16.35;;;10.45;;
81821;SDS011;71257;52.192;5.654;2023-08-06T04:14:26;16.27;;;9.40;;
81821;SDS011;71257;52.192;5.654;2023-08-06T04:16:52;14.82;;;9.32;;
81821;SDS011;71257;52.192;5.654;2023-08-06T04:19:18;16.70;;;9.43;;
81821;SDS011;71257;52.192;5.654;2023-08-06T04:21:43;19.35;;;10.82;;
81821;SDS011;71257;52.192;5.654;2023-08-06T04:24:09;16.60;;;10.18;;
81821;SDS011;71257;52.192;5.654;2023-08-06T04:26:34;18.90;;;10.18;;
81821;SDS011;71257;52.192;5.654;2023-08-06T04:29:00;15.00;;;8.80;;
81821;SDS011;71257;52.192;5.654;2023-08-06T04:31:25;16.58;;;9.18;;
81821;SDS011;71257;52.192;5.654;2023-08-06T04:33:50;15.70;;;9.47;;
81821;SDS011;71257;52.192;5.654;2023-08-06T04:36:16;15.20;;;9.30;;
81821;SDS011;71257;52.192;5.654;2023-08-06T04:38:41;16.92;;;9.63;;
81821;SDS011;71257;52.192;5.654;2023-08-06T04:41:10;15.85;;;9.73;;
81821;SDS011;71257;52.192;5.654;2023-08-06T04:43:36;16.80;;;9.60;;
81821;SDS011;71257;52.192;5.654;2023-08-06T04:46:01;18.53;;;10.27;;
81821;SDS011;71257;52.192;5.654;2023-08-06T04:48:26;15.68;;;9.98;;
81821;SDS011;71257;52.192;5.654;2023-08-06T04:50:52;18.20;;;10.63;;
81821;SDS011;71257;52.192;5.654;2023-08-06T04:53:17;14.82;;;8.88;;
81821;SDS011;71257;52.192;5.654;2023-08-06T04:55:43;15.57;;;9.15;;
81821;SDS011;71257;52.192;5.654;2023-08-06T04:58:08;15.18;;;9.90;;
81821;SDS011;71257;52.192;5.654;2023-08-06T05:00:35;16.52;;;9.30;;
81821;SDS011;71257;52.192;5.654;2023-08-06T05:03:00;20.17;;;10.52;;
81821;SDS011;71257;52.192;5.654;2023-08-06T05:05:26;16.48;;;10.02;;
81821;SDS011;71257;52.192;5.654;2023-08-06T05:07:53;17.92;;;10.15;;
81821;SDS011;71257;52.192;5.654;2023-08-06T05:10:21;15.63;;;9.77;;
81821;SDS011;71257;52.192;5.654;2023-08-06T05:12:49;16.30;;;9.15;;
81821;SDS011;71257;52.192;5.654;2023-08-06T05:15:14;14.45;;;9.02;;
81821;SDS011;71257;52.192;5.654;2023-08-06T05:17:39;16.73;;;9.50;;
81821;SDS011;71257;52.192;5.654;2023-08-06T05:20:05;14.53;;;8.73;;
81821;SDS011;71257;52.192;5.654;2023-08-06T05:22:30;14.15;;;8.75;;
81821;SDS011;71257;52.192;5.654;2023-08-06T05:24:56;14.15;;;9.07;;
81821;SDS011;71257;52.192;5.654;2023-08-06T05:27:21;15.03;;;8.10;;
81821;SDS011;71257;52.192;5.654;2023-08-06T05:29:47;15.50;;;8.80;;
81821;SDS011;71257;52.192;5.654;2023-08-06T05:32:13;14.68;;;8.68;;
81821;SDS011;71257;52.192;5.654;2023-08-06T05:34:38;13.60;;;7.90;;
81821;SDS011;71257;52.192;5.654;2023-08-06T05:37:04;14.18;;;8.90;;
81821;SDS011;71257;52.192;5.654;2023-08-06T05:39:32;13.82;;;8.73;;
81821;SDS011;71257;52.192;5.654;2023-08-06T05:41:58;16.02;;;8.75;;
81821;SDS011;71257;52.192;5.654;2023-08-06T05:44:23;12.93;;;7.77;;
81821;SDS011;71257;52.192;5.654;2023-08-06T05:46:49;13.98;;;8.18;;
81821;SDS011;71257;52.192;5.654;2023-08-06T05:49:14;14.18;;;7.45;;
81821;SDS011;71257;52.192;5.654;2023-08-06T05:51:40;15.13;;;8.07;;
81821;SDS011;71257;52.192;5.654;2023-08-06T05:54:06;15.25;;;8.95;;
81821;SDS011;71257;52.192;5.654;2023-08-06T05:56:31;13.23;;;7.97;;
81821;SDS011;71257;52.192;5.654;2023-08-06T05:58:57;13.00;;;8.30;;
81821;SDS011;71257;52.192;5.654;2023-08-06T06:01:22;13.60;;;8.23;;
81821;SDS011;71257;52.192;5.654;2023-08-06T06:03:48;16.05;;;7.68;;
81821;SDS011;71257;52.192;5.654;2023-08-06T06:06:13;11.02;;;7.53;;
81821;SDS011;71257;52.192;5.654;2023-08-06T06:08:39;11.90;;;7.40;;
81821;SDS011;71257;52.192;5.654;2023-08-06T06:11:04;13.98;;;7.18;;
81821;SDS011;71257;52.192;5.654;2023-08-06T06:13:29;12.80;;;6.47;;
81821;SDS011;71257;52.192;5.654;2023-08-06T06:15:55;11.95;;;7.90;;
81821;SDS011;71257;52.192;5.654;2023-08-06T06:18:21;11.30;;;6.70;;
81821;SDS011;71257;52.192;5.654;2023-08-06T06:20:47;10.27;;;6.35;;
81821;SDS011;71257;52.192;5.654;2023-08-06T06:23:12;10.77;;;7.05;;
81821;SDS011;71257;52.192;5.654;2023-08-06T06:25:41;10.40;;;6.35;;
81821;SDS011;71257;52.192;5.654;2023-08-06T06:28:08;9.88;;;5.82;;
81821;SDS011;71257;52.192;5.654;2023-08-06T06:30:34;9.98;;;5.85;;
81821;SDS011;71257;52.192;5.654;2023-08-06T06:32:59;10.30;;;5.97;;
81821;SDS011;71257;52.192;5.654;2023-08-06T06:35:25;9.07;;;5.65;;
81821;SDS011;71257;52.192;5.654;2023-08-06T06:37:50;9.55;;;5.57;;
81821;SDS011;71257;52.192;5.654;2023-08-06T06:40:16;9.13;;;5.55;;
81821;SDS011;71257;52.192;5.654;2023-08-06T06:42:42;9.82;;;5.50;;
81821;SDS011;71257;52.192;5.654;2023-08-06T06:45:07;8.52;;;5.45;;
81821;SDS011;71257;52.192;5.654;2023-08-06T06:47:33;9.25;;;5.57;;
81821;SDS011;71257;52.192;5.654;2023-08-06T06:49:58;10.70;;;5.53;;
81821;SDS011;71257;52.192;5.654;2023-08-06T06:52:24;9.17;;;5.30;;
81821;SDS011;71257;52.192;5.654;2023-08-06T06:54:49;8.73;;;4.70;;
81821;SDS011;71257;52.192;5.654;2023-08-06T06:57:15;8.63;;;5.28;;
81821;SDS011;71257;52.192;5.654;2023-08-06T06:59:40;10.40;;;5.20;;
81821;SDS011;71257;52.192;5.654;2023-08-06T07:02:05;8.07;;;5.43;;
81821;SDS011;71257;52.192;5.654;2023-08-06T07:04:31;7.83;;;5.43;;
81821;SDS011;71257;52.192;5.654;2023-08-06T07:06:56;8.53;;;5.40;;
81821;SDS011;71257;52.192;5.654;2023-08-06T07:09:21;7.75;;;5.70;;
81821;SDS011;71257;52.192;5.654;2023-08-06T07:11:47;8.87;;;5.13;;
81821;SDS011;71257;52.192;5.654;2023-08-06T07:14:12;8.65;;;5.72;;
81821;SDS011;71257;52.192;5.654;2023-08-06T07:16:39;9.15;;;6.40;;
81821;SDS011;71257;52.192;5.654;2023-08-06T07:19:04;10.60;;;6.35;;
81821;SDS011;71257;52.192;5.654;2023-08-06T07:21:30;9.60;;;5.60;;
81821;SDS011;71257;52.192;5.654;2023-08-06T07:23:56;8.63;;;5.07;;
81821;SDS011;71257;52.192;5.654;2023-08-06T07:26:22;8.88;;;4.95;;
81821;SDS011;71257;52.192;5.654;2023-08-06T07:28:47;7.68;;;5.45;;
81821;SDS011;71257;52.192;5.654;2023-08-06T07:31:12;8.55;;;5.28;;
81821;SDS011;71257;52.192;5.654;2023-08-06T07:33:38;7.72;;;4.90;;
81821;SDS011;71257;52.192;5.654;2023-08-06T07:36:11;7.68;;;5.07;;
81821;SDS011;71257;52.192;5.654;2023-08-06T07:38:37;7.47;;;4.60;;
81821;SDS011;71257;52.192;5.654;2023-08-06T07:41:03;7.28;;;4.88;;
81821;SDS011;71257;52.192;5.654;2023-08-06T07:43:29;7.13;;;4.32;;
81821;SDS011;71257;52.192;5.654;2023-08-06T07:45:57;8.47;;;4.67;;
81821;SDS011;71257;52.192;5.654;2023-08-06T07:48:23;8.15;;;4.57;;
81821;SDS011;71257;52.192;5.654;2023-08-06T07:50:51;7.57;;;4.38;;
81821;SDS011;71257;52.192;5.654;2023-08-06T07:53:18;7.78;;;4.88;;
81821;SDS011;71257;52.192;5.654;2023-08-06T07:55:51;9.25;;;4.85;;
81821;SDS011;71257;52.192;5.654;2023-08-06T07:58:17;6.70;;;4.65;;
81821;SDS011;71257;52.192;5.654;2023-08-06T08:00:43;7.45;;;4.53;;
81821;SDS011;71257;52.192;5.654;2023-08-06T08:03:11;6.28;;;4.55;;
81821;SDS011;71257;52.192;5.654;2023-08-06T08:08:03;8.00;;;5.33;;
81821;SDS011;71257;52.192;5.654;2023-08-06T08:10:29;8.75;;;5.60;;
81821;SDS011;71257;52.192;5.654;2023-08-06T08:12:55;8.05;;;5.40;;
81821;SDS011;71257;52.192;5.654;2023-08-06T08:15:21;9.63;;;5.83;;
81821;SDS011;71257;52.192;5.654;2023-08-06T08:17:46;9.90;;;6.28;;
81821;SDS011;71257;52.192;5.654;2023-08-06T08:20:12;10.25;;;7.05;;
81821;SDS011;71257;52.192;5.654;2023-08-06T08:22:38;12.20;;;8.35;;
81821;SDS011;71257;52.192;5.654;2023-08-06T08:25:04;11.18;;;7.63;;
81821;SDS011;71257;52.192;5.654;2023-08-06T08:27:30;13.20;;;8.10;;
81821;SDS011;71257;52.192;5.654;2023-08-06T08:29:56;12.20;;;8.38;;
81821;SDS011;71257;52.192;5.654;2023-08-06T08:32:21;12.40;;;8.63;;
81821;SDS011;71257;52.192;5.654;2023-08-06T08:34:46;14.80;;;8.43;;
81821;SDS011;71257;52.192;5.654;2023-08-06T08:37:12;12.73;;;8.50;;
81821;SDS011;71257;52.192;5.654;2023-08-06T08:39:38;14.02;;;9.07;;
81821;SDS011;71257;52.192;5.654;2023-08-06T08:42:03;12.27;;;8.30;;
81821;SDS011;71257;52.192;5.654;2023-08-06T08:44:31;14.18;;;9.30;;
81821;SDS011;71257;52.192;5.654;2023-08-06T08:46:58;12.60;;;9.05;;
81821;SDS011;71257;52.192;5.654;2023-08-06T08:49:24;13.48;;;9.10;;
81821;SDS011;71257;52.192;5.654;2023-08-06T08:54:18;17.17;;;10.43;;
81821;SDS011;71257;52.192;5.654;2023-08-06T08:56:45;17.02;;;9.65;;
81821;SDS011;71257;52.192;5.654;2023-08-06T08:59:10;17.75;;;10.55;;
81821;SDS011;71257;52.192;5.654;2023-08-06T09:01:36;17.67;;;10.13;;
81821;SDS011;71257;52.192;5.654;2023-08-06T09:04:04;20.33;;;11.75;;
81821;SDS011;71257;52.192;5.654;2023-08-06T09:06:31;21.70;;;12.32;;
81821;SDS011;71257;52.192;5.654;2023-08-06T09:09:06;18.88;;;11.45;;
81821;SDS011;71257;52.192;5.654;2023-08-06T09:11:35;19.58;;;11.80;;
81821;SDS011;71257;52.192;5.654;2023-08-06T09:14:06;19.42;;;12.05;;
81821;SDS011;71257;52.192;5.654;2023-08-06T09:16:34;20.88;;;12.15;;
81821;SDS011;71257;52.192;5.654;2023-08-06T09:19:08;21.27;;;12.82;;
81821;SDS011;71257;52.192;5.654;2023-08-06T09:24:05;21.45;;;12.30;;
81821;SDS011;71257;52.192;5.654;2023-08-06T09:26:34;20.85;;;12.13;;
81821;SDS011;71257;52.192;5.654;2023-08-06T09:29:00;19.38;;;12.23;;
81821;SDS011;71257;52.192;5.654;2023-08-06T09:31:32;18.83;;;11.77;;
81821;SDS011;71257;52.192;5.654;2023-08-06T09:33:59;20.42;;;12.77;;
81821;SDS011;71257;52.192;5.654;2023-08-06T09:36:26;20.40;;;12.73;;
81821;SDS011;71257;52.192;5.654;2023-08-06T09:38:52;19.60;;;12.38;;
81821;SDS011;71257;52.192;5.654;2023-08-06T09:41:32;18.77;;;11.90;;
81821;SDS011;71257;52.192;5.654;2023-08-06T09:43:58;19.27;;;11.60;;
81821;SDS011;71257;52.192;5.654;2023-08-06T09:46:24;21.35;;;12.82;;
81821;SDS011;71257;52.192;5.654;2023-08-06T09:48:50;20.50;;;12.65;;
81821;SDS011;71257;52.192;5.654;2023-08-06T09:51:15;18.25;;;12.35;;
81821;SDS011;71257;52.192;5.654;2023-08-06T09:53:41;21.23;;;12.13;;
81821;SDS011;71257;52.192;5.654;2023-08-06T09:56:07;22.45;;;12.98;;
81821;SDS011;71257;52.192;5.654;2023-08-06T09:58:34;20.88;;;12.40;;
81821;SDS011;71257;52.192;5.654;2023-08-06T10:01:01;20.50;;;12.85;;
81821;SDS011;71257;52.192;5.654;2023-08-06T10:03:27;22.48;;;13.63;;
81821;SDS011;71257;52.192;5.654;2023-08-06T10:05:55;25.80;;;14.13;;
81821;SDS011;71257;52.192;5.654;2023-08-06T10:08:20;11.90;;;6.78;;
81821;SDS011;71257;52.192;5.654;2023-08-06T10:10:47;8.73;;;4.65;;
81821;SDS011;71257;52.192;5.654;2023-08-06T10:13:12;5.65;;;3.30;;
81821;SDS011;71257;52.192;5.654;2023-08-06T10:15:57;5.75;;;2.92;;
81821;SDS011;71257;52.192;5.654;2023-08-06T10:18:22;3.45;;;2.20;;
81821;SDS011;71257;52.192;5.654;2023-08-06T10:20:48;3.83;;;2.38;;
81821;SDS011;71257;52.192;5.654;2023-08-06T10:23:14;3.45;;;1.98;;
81821;SDS011;71257;52.192;5.654;2023-08-06T10:25:40;3.63;;;2.20;;
81821;SDS011;71257;52.192;5.654;2023-08-06T10:28:08;5.07;;;2.58;;
81821;SDS011;71257;52.192;5.654;2023-08-06T10:30:40;3.83;;;2.50;;
81821;SDS011;71257;52.192;5.654;2023-08-06T10:33:07;3.72;;;2.20;;
81821;SDS011;71257;52.192;5.654;2023-08-06T10:35:40;3.30;;;2.00;;
81821;SDS011;71257;52.192;5.654;2023-08-06T10:38:09;3.55;;;1.83;;
81821;SDS011;71257;52.192;5.654;2023-08-06T10:40:48;4.90;;;2.70;;
81821;SDS011;71257;52.192;5.654;2023-08-06T10:43:46;3.45;;;2.00;;
81821;SDS011;71257;52.192;5.654;2023-08-06T10:46:09;3.63;;;2.20;;
81821;SDS011;71257;52.192;5.654;2023-08-06T10:48:36;3.17;;;1.98;;
81821;SDS011;71257;52.192;5.654;2023-08-06T10:51:07;3.63;;;2.05;;
81821;SDS011;71257;52.192;5.654;2023-08-06T10:53:33;3.10;;;1.80;;
81821;SDS011;71257;52.192;5.654;2023-08-06T10:55:59;4.40;;;2.22;;
81821;SDS011;71257;52.192;5.654;2023-08-06T10:58:30;4.25;;;2.63;;
81821;SDS011;71257;52.192;5.654;2023-08-06T11:00:56;3.20;;;2.10;;
81821;SDS011;71257;52.192;5.654;2023-08-06T11:03:22;3.00;;;2.05;;
81821;SDS011;71257;52.192;5.654;2023-08-06T11:05:48;3.90;;;2.38;;
81821;SDS011;71257;52.192;5.654;2023-08-06T11:08:23;4.05;;;2.30;;
81821;SDS011;71257;52.192;5.654;2023-08-06T11:10:49;4.25;;;2.38;;
81821;SDS011;71257;52.192;5.654;2023-08-06T11:13:16;5.63;;;2.58;;
81821;SDS011;71257;52.192;5.654;2023-08-06T11:15:43;5.63;;;2.80;;
81821;SDS011;71257;52.192;5.654;2023-08-06T11:18:09;6.25;;;3.75;;
81821;SDS011;71257;52.192;5.654;2023-08-06T11:20:35;7.15;;;3.22;;
81821;SDS011;71257;52.192;5.654;2023-08-06T11:23:01;5.90;;;3.55;;
81821;SDS011;71257;52.192;5.654;2023-08-06T11:25:28;8.45;;;3.58;;
81821;SDS011;71257;52.192;5.654;2023-08-06T11:27:54;5.93;;;3.10;;
81821;SDS011;71257;52.192;5.654;2023-08-06T11:30:19;6.40;;;3.25;;
81821;SDS011;71257;52.192;5.654;2023-08-06T11:32:45;7.13;;;3.20;;
81821;SDS011;71257;52.192;5.654;2023-08-06T11:35:13;5.43;;;3.03;;
81821;SDS011;71257;52.192;5.654;2023-08-06T11:37:39;7.30;;;3.40;;
81821;SDS011;71257;52.192;5.654;2023-08-06T11:40:09;5.15;;;2.97;;
81821;SDS011;71257;52.192;5.654;2023-08-06T11:42:36;6.75;;;3.92;;
81821;SDS011;71257;52.192;5.654;2023-08-06T11:45:02;8.45;;;3.72;;
81821;SDS011;71257;52.192;5.654;2023-08-06T11:47:29;6.75;;;3.67;;
81821;SDS011;71257;52.192;5.654;2023-08-06T11:49:54;6.80;;;3.80;;
81821;SDS011;71257;52.192;5.654;2023-08-06T11:52:21;8.65;;;3.70;;
81821;SDS011;71257;52.192;5.654;2023-08-06T11:55:00;11.50;;;3.78;;
81821;SDS011;71257;52.192;5.654;2023-08-06T11:57:29;6.80;;;3.40;;
81821;SDS011;71257;52.192;5.654;2023-08-06T11:59:58;7.03;;;3.63;;
81821;SDS011;71257;52.192;5.654;2023-08-06T12:02:28;7.97;;;3.80;;
81821;SDS011;71257;52.192;5.654;2023-08-06T12:05:00;8.38;;;4.10;;
81821;SDS011;71257;52.192;5.654;2023-08-06T12:07:29;7.47;;;3.58;;
81821;SDS011;71257;52.192;5.654;2023-08-06T12:09:56;9.38;;;3.92;;
81821;SDS011;71257;52.192;5.654;2023-08-06T12:12:22;6.05;;;3.42;;
81821;SDS011;71257;52.192;5.654;2023-08-06T12:14:48;6.95;;;3.55;;
81821;SDS011;71257;52.192;5.654;2023-08-06T12:17:13;10.25;;;4.13;;
81821;SDS011;71257;52.192;5.654;2023-08-06T12:19:39;6.15;;;3.45;;
81821;SDS011;71257;52.192;5.654;2023-08-06T12:22:04;6.30;;;3.63;;
81821;SDS011;71257;52.192;5.654;2023-08-06T12:24:30;7.25;;;3.85;;
81821;SDS011;71257;52.192;5.654;2023-08-06T12:26:57;6.25;;;3.40;;
81821;SDS011;71257;52.192;5.654;2023-08-06T12:29:23;6.60;;;3.60;;
81821;SDS011;71257;52.192;5.654;2023-08-06T12:31:50;6.85;;;3.70;;
81821;SDS011;71257;52.192;5.654;2023-08-06T12:34:15;5.47;;;3.90;;
81821;SDS011;71257;52.192;5.654;2023-08-06T12:36:41;7.05;;;3.83;;
81821;SDS011;71257;52.192;5.654;2023-08-06T12:39:06;7.53;;;4.13;;
81821;SDS011;71257;52.192;5.654;2023-08-06T12:41:31;6.87;;;4.43;;
81821;SDS011;71257;52.192;5.654;2023-08-06T12:43:57;7.20;;;4.30;;
81821;SDS011;71257;52.192;5.654;2023-08-06T12:46:22;9.32;;;4.47;;
81821;SDS011;71257;52.192;5.654;2023-08-06T12:48:47;8.35;;;4.22;;
81821;SDS011;71257;52.192;5.654;2023-08-06T12:51:13;7.57;;;4.35;;
81821;SDS011;71257;52.192;5.654;2023-08-06T12:53:39;6.13;;;4.18;;
81821;SDS011;71257;52.192;5.654;2023-08-06T12:56:04;9.93;;;4.70;;
81821;SDS011;71257;52.192;5.654;2023-08-06T12:58:30;8.95;;;4.70;;
81821;SDS011;71257;52.192;5.654;2023-08-06T13:00:56;9.18;;;5.28;;
81821;SDS011;71257;52.192;5.654;2023-08-06T13:03:21;10.27;;;4.80;;
81821;SDS011;71257;52.192;5.654;2023-08-06T13:05:47;9.60;;;4.82;;
81821;SDS011;71257;52.192;5.654;2023-08-06T13:08:12;8.07;;;4.80;;
81821;SDS011;71257;52.192;5.654;2023-08-06T13:10:37;8.02;;;5.43;;
81821;SDS011;71257;52.192;5.654;2023-08-06T13:13:03;7.85;;;4.15;;
81821;SDS011;71257;52.192;5.654;2023-08-06T13:15:29;6.50;;;3.60;;
81821;SDS011;71257;52.192;5.654;2023-08-06T13:17:54;5.90;;;3.67;;
81821;SDS011;71257;52.192;5.654;2023-08-06T13:20:19;5.90;;;3.53;;
81821;SDS011;71257;52.192;5.654;2023-08-06T13:22:45;4.90;;;3.20;;
81821;SDS011;71257;52.192;5.654;2023-08-06T13:25:12;5.70;;;3.17;;
81821;SDS011;71257;52.192;5.654;2023-08-06T13:27:39;4.93;;;2.70;;
81821;SDS011;71257;52.192;5.654;2023-08-06T13:30:05;6.18;;;3.30;;
81821;SDS011;71257;52.192;5.654;2023-08-06T13:32:31;5.10;;;2.83;;
81821;SDS011;71257;52.192;5.654;2023-08-06T13:34:58;5.45;;;3.10;;
81821;SDS011;71257;52.192;5.654;2023-08-06T13:37:24;4.50;;;2.92;;
81821;SDS011;71257;52.192;5.654;2023-08-06T13:39:49;6.57;;;3.08;;
81821;SDS011;71257;52.192;5.654;2023-08-06T13:42:15;5.83;;;3.17;;
81821;SDS011;71257;52.192;5.654;2023-08-06T13:44:40;5.27;;;3.13;;
81821;SDS011;71257;52.192;5.654;2023-08-06T13:47:06;5.70;;;3.13;;
81821;SDS011;71257;52.192;5.654;2023-08-06T13:49:31;4.75;;;3.00;;
81821;SDS011;71257;52.192;5.654;2023-08-06T13:51:57;8.68;;;3.22;;
81821;SDS011;71257;52.192;5.654;2023-08-06T13:54:22;5.90;;;3.40;;
81821;SDS011;71257;52.192;5.654;2023-08-06T13:56:48;5.43;;;3.03;;
81821;SDS011;71257;52.192;5.654;2023-08-06T13:59:14;6.13;;;3.35;;
81821;SDS011;71257;52.192;5.654;2023-08-06T14:01:40;5.70;;;3.40;;
81821;SDS011;71257;52.192;5.654;2023-08-06T14:04:05;5.80;;;3.13;;
81821;SDS011;71257;52.192;5.654;2023-08-06T14:06:31;5.97;;;3.23;;
81821;SDS011;71257;52.192;5.654;2023-08-06T14:08:56;7.20;;;3.97;;
81821;SDS011;71257;52.192;5.654;2023-08-06T14:11:21;8.43;;;4.13;;
81821;SDS011;71257;52.192;5.654;2023-08-06T14:13:47;6.45;;;3.30;;
81821;SDS011;71257;52.192;5.654;2023-08-06T14:16:12;7.05;;;2.88;;
81821;SDS011;71257;52.192;5.654;2023-08-06T14:18:38;6.43;;;3.20;;
81821;SDS011;71257;52.192;5.654;2023-08-06T14:21:03;5.15;;;3.25;;
81821;SDS011;71257;52.192;5.654;2023-08-06T14:23:29;4.55;;;2.88;;
81821;SDS011;71257;52.192;5.654;2023-08-06T14:25:54;6.60;;;3.17;;
81821;SDS011;71257;52.192;5.654;2023-08-06T14:28:20;5.95;;;3.13;;
81821;SDS011;71257;52.192;5.654;2023-08-06T14:30:45;7.37;;;3.37;;
81821;SDS011;71257;52.192;5.654;2023-08-06T14:33:11;5.25;;;3.50;;
81821;SDS011;71257;52.192;5.654;2023-08-06T14:35:36;7.72;;;3.42;;
81821;SDS011;71257;52.192;5.654;2023-08-06T14:38:02;7.67;;;3.90;;
81821;SDS011;71257;52.192;5.654;2023-08-06T14:40:27;7.35;;;3.45;;